Terminal Aerodrome Forecast
Issued by NWS

Home | Current Version | Previous Version | Text Only | Print | Product List | Glossary On
Versions: 1 2 3 4 5 6 7 8 9 10 11 12 13 14 15 16 17 18 19 20 21 22 23 24 25
193
FTUS46 KSGX 281124
TAFSAN
TAF
KSAN 281124Z 2812/2918 29004KT P6SM SCT009
      TEMPO 2812/2814 BKN009
     FM282000 29010KT P6SM SCT250
     FM290200 VRB03KT P6SM FEW010 SCT250
     FM290800 VRB03KT P6SM BKN010
     FM291500 VRB04KT P6SM SCT012=

USA.gov is the U.S. government's official web portal to all federal, state and local government web resources and services.